Time;durP1;ratioP1;P1;durP2;ratioP2;P2;SDS_P1;SDS_P2;PMS_P1;PMS_P2;Temp;Humidity;BMP_temperature;BMP_pressure;BME280_temperature;BME280_humidity;BME280_pressure;Samples;Min_cycle;Max_cycle;Signal;HPM_P1;HPM_P2
2022/08/27 00:01:20;;;;;;;6.35;1.60;;;17.90;99.90;;;;;;5021722;28;20452;-53
2022/08/27 00:03:46;;;;;;;4.88;1.40;;;17.90;99.90;;;;;;5023256;28;20088;-53
2022/08/27 00:06:17;;;;;;;6.50;1.52;;;18.00;99.90;;;;;;5022615;28;20088;-53
2022/08/27 00:08:44;;;;;;;5.80;1.08;;;18.00;99.90;;;;;;5022712;28;20041;-53
2022/08/27 00:11:10;;;;;;;4.05;1.13;;;18.00;99.90;;;;;;5023220;28;20084;-52
2022/08/27 00:13:36;;;;;;;6.07;1.20;;;18.00;99.90;;;;;;5023327;28;20448;-51
2022/08/27 00:16:07;;;;;;;5.18;1.48;;;18.00;99.90;;;;;;5022485;28;20046;-53
2022/08/27 00:18:34;;;;;;;5.90;1.60;;;18.00;99.90;;;;;;5022766;28;20037;-50
2022/08/27 00:21:01;;;;;;;5.63;1.38;;;17.90;99.90;;;;;;5023363;28;20049;-51
2022/08/27 00:23:26;;;;;;;6.07;1.55;;;17.90;99.90;;;;;;5023306;28;20567;-53
2022/08/27 00:25:52;;;;;;;5.63;1.27;;;18.00;99.90;;;;;;5022150;28;20294;-51
2022/08/27 00:28:18;;;;;;;4.00;1.15;;;17.90;99.90;;;;;;5023060;28;20493;-53
2022/08/27 00:30:44;;;;;;;3.75;1.15;;;17.90;99.90;;;;;;5021508;28;20038;-52
2022/08/27 00:33:09;;;;;;;6.22;1.30;;;17.90;99.90;;;;;;5023004;28;20119;-52
2022/08/27 00:35:36;;;;;;;5.65;1.27;;;17.80;99.90;;;;;;5022763;28;20052;-53
2022/08/27 00:38:04;;;;;;;4.63;1.30;;;17.80;99.90;;;;;;5022814;28;20053;-52
2022/08/27 00:40:32;;;;;;;5.65;1.27;;;17.70;99.90;;;;;;5023129;28;20087;-53
2022/08/27 00:43:00;;;;;;;5.68;1.50;;;17.60;99.90;;;;;;5003932;28;20038;-52
2022/08/27 00:45:25;;;;;;;5.72;1.48;;;17.60;99.90;;;;;;5021661;28;20046;-54
2022/08/27 00:47:55;;;;;;;7.25;1.33;;;17.60;99.90;;;;;;5022274;28;20044;-53
2022/08/27 00:50:44;;;;;;;5.95;1.38;;;17.50;99.90;;;;;;5021906;28;20071;-51
2022/08/27 00:53:14;;;;;;;4.57;1.30;;;17.50;99.90;;;;;;5022512;28;20041;-52
2022/08/27 00:55:45;;;;;;;6.50;1.40;;;17.40;99.90;;;;;;5021655;28;20045;-53
2022/08/27 00:58:24;;;;;;;4.32;1.15;;;17.40;99.90;;;;;;5022662;28;20045;-52
2022/08/27 01:00:50;;;;;;;6.28;1.40;;;17.40;99.90;;;;;;5019641;28;20046;-52
2022/08/27 01:03:16;;;;;;;7.45;1.27;;;17.30;99.90;;;;;;5021621;28;20099;-53
2022/08/27 01:05:44;;;;;;;5.53;1.33;;;17.30;99.90;;;;;;5021301;28;20037;-52
2022/08/27 01:08:14;;;;;;;6.00;1.55;;;17.30;99.90;;;;;;5021518;28;20544;-53
2022/08/27 01:10:40;;;;;;;5.13;1.40;;;17.30;99.90;;;;;;5021239;28;20033;-51
2022/08/27 01:13:16;;;;;;;5.43;1.25;;;17.30;99.90;;;;;;5022346;28;20052;-50
2022/08/27 01:15:42;;;;;;;4.45;1.30;;;17.30;99.90;;;;;;5021161;28;20103;-51
2022/08/27 01:18:12;;;;;;;5.20;1.60;;;17.30;99.90;;;;;;5003674;28;20056;-53
2022/08/27 01:21:13;;;;;;;7.10;1.73;;;17.10;99.90;;;;;;5021421;28;20048;-54
2022/08/27 01:23:52;;;;;;;5.30;1.90;;;17.10;99.90;;;;;;4989079;28;20470;-53
2022/08/27 01:26:18;;;;;;;5.35;1.63;;;17.10;99.90;;;;;;5022175;28;20054;-52
2022/08/27 01:28:44;;;;;;;4.88;1.35;;;17.00;99.90;;;;;;5020499;28;20136;-52
2022/08/27 01:31:11;;;;;;;6.07;1.40;;;17.00;99.90;;;;;;5020853;28;20046;-53
2022/08/27 01:33:38;;;;;;;6.72;1.60;;;17.00;99.90;;;;;;5021783;28;20052;-55
2022/08/27 01:36:05;;;;;;;4.63;1.30;;;17.00;99.90;;;;;;5020979;28;20041;-52
2022/08/27 01:38:31;;;;;;;6.00;1.42;;;16.90;99.90;;;;;;5022109;28;20116;-53
2022/08/27 01:41:01;;;;;;;4.93;1.60;;;16.90;99.90;;;;;;5021297;28;20100;-51
2022/08/27 01:43:28;;;;;;;5.38;1.60;;;16.80;99.90;;;;;;5021826;28;20076;-52
2022/08/27 01:45:54;;;;;;;7.28;2.00;;;16.90;99.90;;;;;;5002464;28;20077;-53
2022/08/27 01:48:20;;;;;;;4.78;1.67;;;16.90;99.90;;;;;;5021509;28;20050;-53
2022/08/27 01:50:47;;;;;;;6.22;1.60;;;16.90;99.90;;;;;;5020959;28;20041;-52
2022/08/27 01:53:18;;;;;;;3.53;1.30;;;17.00;99.90;;;;;;5003153;28;20049;-53
2022/08/27 01:55:45;;;;;;;5.57;1.48;;;17.00;99.90;;;;;;5003528;28;20412;-53
2022/08/27 01:58:12;;;;;;;9.45;1.63;;;17.00;99.90;;;;;;5003343;28;20045;-49
2022/08/27 02:00:41;;;;;;;5.97;1.48;;;17.10;99.90;;;;;;5019338;28;20046;-53
2022/08/27 02:03:09;;;;;;;4.70;1.50;;;17.00;99.90;;;;;;5020707;28;20050;-55
2022/08/27 02:05:37;;;;;;;5.47;1.50;;;17.10;99.90;;;;;;5020755;28;20570;-52
2022/08/27 02:08:03;;;;;;;8.02;1.63;;;17.00;99.90;;;;;;5010943;28;20033;-53
2022/08/27 02:10:32;;;;;;;8.43;1.67;;;17.10;99.90;;;;;;5020919;28;20049;-54
2022/08/27 02:12:59;;;;;;;6.72;1.55;;;17.00;99.90;;;;;;5021265;28;20046;-53
2022/08/27 02:15:25;;;;;;;4.97;1.40;;;17.10;99.90;;;;;;5019897;28;20281;-53
2022/08/27 02:17:51;;;;;;;7.60;1.60;;;17.10;99.90;;;;;;5020962;28;20044;-54
2022/08/27 02:20:17;;;;;;;5.32;1.35;;;17.10;99.90;;;;;;5021240;28;20400;-53
2022/08/27 02:22:43;;;;;;;5.88;1.60;;;17.10;99.90;;;;;;5020883;28;20037;-53
2022/08/27 02:25:12;;;;;;;5.55;1.70;;;17.10;99.90;;;;;;5020178;28;20068;-53
2022/08/27 02:27:41;;;;;;;5.75;1.65;;;17.10;99.90;;;;;;5020942;28;20037;-55
2022/08/27 02:30:11;;;;;;;7.15;1.88;;;17.10;99.90;;;;;;5019545;28;20172;-53
2022/08/27 02:32:36;;;;;;;4.40;1.60;;;17.20;99.90;;;;;;5020323;28;20046;-52
2022/08/27 02:35:03;;;;;;;6.60;1.83;;;17.30;99.90;;;;;;5021159;28;20091;-55
2022/08/27 02:37:30;;;;;;;7.10;1.85;;;17.20;99.90;;;;;;5003363;28;20049;-53
2022/08/27 02:39:56;;;;;;;6.68;1.77;;;17.30;99.90;;;;;;5019698;28;20061;-51
2022/08/27 02:42:22;;;;;;;6.80;1.60;;;17.20;99.90;;;;;;5020879;28;20046;-51
2022/08/27 02:44:47;;;;;;;5.88;1.70;;;17.20;99.90;;;;;;5019790;28;20046;-53
2022/08/27 02:47:15;;;;;;;7.85;2.00;;;17.20;99.90;;;;;;5020791;28;20049;-53
2022/08/27 02:49:42;;;;;;;7.43;2.05;;;17.20;99.90;;;;;;5020248;28;20055;-53
2022/08/27 02:52:08;;;;;;;5.80;1.65;;;17.30;99.90;;;;;;5020900;28;20133;-55
2022/08/27 02:54:33;;;;;;;6.00;1.77;;;17.30;99.90;;;;;;5020736;28;20124;-51
2022/08/27 02:56:59;;;;;;;9.00;1.85;;;17.30;99.90;;;;;;5019786;28;20484;-53
2022/08/27 02:59:25;;;;;;;6.95;1.80;;;17.40;99.90;;;;;;5020623;28;20050;-53
2022/08/27 03:01:51;;;;;;;8.60;1.92;;;17.40;99.90;;;;;;5020166;28;20041;-53
2022/08/27 03:04:18;;;;;;;5.45;1.88;;;17.30;99.90;;;;;;5020303;28;20089;-53
2022/08/27 03:06:45;;;;;;;6.53;1.73;;;17.20;99.90;;;;;;5019089;28;20058;-52
2022/08/27 03:09:10;;;;;;;6.20;1.75;;;17.30;99.90;;;;;;5020885;28;20120;-52
2022/08/27 03:11:36;;;;;;;6.35;1.83;;;17.30;99.90;;;;;;5020334;28;20795;-52
2022/08/27 03:14:02;;;;;;;8.95;1.88;;;17.40;99.90;;;;;;5020557;28;20030;-51
2022/08/27 03:16:28;;;;;;;4.65;1.50;;;17.30;99.90;;;;;;5022239;28;20513;-53
2022/08/27 03:18:54;;;;;;;6.05;1.50;;;17.30;99.90;;;;;;5024030;28;20037;-52
2022/08/27 03:21:24;;;;;;;6.15;1.73;;;17.30;99.90;;;;;;5006976;28;20508;-53
2022/08/27 03:23:50;;;;;;;5.60;1.60;;;17.20;99.90;;;;;;5023652;28;20048;-52
2022/08/27 03:26:16;;;;;;;6.78;1.80;;;17.20;99.90;;;;;;5024279;28;20037;-53
2022/08/27 03:28:42;;;;;;;5.80;1.90;;;17.30;99.90;;;;;;5023909;28;20049;-54
2022/08/27 03:31:25;;;;;;;7.50;2.08;;;17.30;99.90;;;;;;5022783;28;20038;-53
2022/08/27 03:33:53;;;;;;;6.90;1.90;;;17.30;99.90;;;;;;5023730;28;20081;-52
2022/08/27 03:36:19;;;;;;;7.68;1.50;;;17.30;99.90;;;;;;5023908;28;20416;-53
2022/08/27 03:38:45;;;;;;;6.40;1.50;;;17.40;99.90;;;;;;5023462;28;20041;-53
2022/08/27 03:41:12;;;;;;;5.95;1.60;;;17.30;99.90;;;;;;5024013;28;20045;-53
2022/08/27 03:43:38;;;;;;;8.43;1.70;;;17.30;99.90;;;;;;5024073;28;20125;-52
2022/08/27 03:46:05;;;;;;;5.10;1.50;;;17.40;99.90;;;;;;5022678;28;20077;-53
2022/08/27 03:48:31;;;;;;;8.20;1.73;;;17.40;99.90;;;;;;5024002;28;20090;-52
2022/08/27 03:50:57;;;;;;;6.95;1.70;;;17.30;99.90;;;;;;5023578;28;20669;-53
2022/08/27 03:53:22;;;;;;;7.43;1.90;;;17.30;99.90;;;;;;5022800;28;20045;-52
2022/08/27 03:55:48;;;;;;;7.40;1.60;;;17.30;99.90;;;;;;5023457;28;20045;-53
2022/08/27 03:58:15;;;;;;;8.43;1.63;;;17.30;99.90;;;;;;5023652;28;20044;-52
2022/08/27 04:00:41;;;;;;;5.60;1.65;;;17.30;99.90;;;;;;5022496;28;20049;-50
2022/08/27 04:03:06;;;;;;;4.30;1.60;;;17.20;99.90;;;;;;5022822;28;20053;-54
2022/08/27 04:05:33;;;;;;;9.15;1.75;;;17.20;99.90;;;;;;5022702;28;20136;-53
2022/08/27 04:07:59;;;;;;;8.93;1.92;;;17.20;99.90;;;;;;5023458;28;20441;-53
2022/08/27 04:10:26;;;;;;;4.75;1.90;;;17.20;99.90;;;;;;5005067;28;20049;-51
2022/08/27 04:12:52;;;;;;;8.75;2.00;;;17.10;99.90;;;;;;5023014;28;20085;-55
2022/08/27 04:15:18;;;;;;;4.50;1.50;;;17.00;99.90;;;;;;5022519;28;20524;-53
2022/08/27 04:17:44;;;;;;;6.68;1.92;;;16.80;99.90;;;;;;5022836;28;20040;-54
2022/08/27 04:20:11;;;;;;;6.13;1.70;;;16.90;99.90;;;;;;5004769;28;20116;-55
2022/08/27 04:22:38;;;;;;;8.00;2.03;;;16.80;99.90;;;;;;5023200;28;20095;-52
2022/08/27 04:25:06;;;;;;;6.80;1.98;;;16.80;99.90;;;;;;5023269;28;20057;-53
2022/08/27 04:27:32;;;;;;;4.30;1.58;;;16.80;99.90;;;;;;5022320;28;20307;-53
2022/08/27 04:29:59;;;;;;;5.18;1.83;;;16.80;99.90;;;;;;5022183;28;20037;-53
2022/08/27 04:32:26;;;;;;;5.78;1.70;;;16.70;99.90;;;;;;5022619;28;20042;-53
2022/08/27 04:34:53;;;;;;;4.60;1.70;;;16.70;99.90;;;;;;5022300;28;20045;-48
2022/08/27 04:37:19;;;;;;;6.03;2.05;;;16.60;99.90;;;;;;5022544;28;20041;-52
2022/08/27 04:39:45;;;;;;;6.85;1.77;;;16.60;99.90;;;;;;5022360;28;20043;-52
2022/08/27 04:42:10;;;;;;;5.32;1.80;;;16.60;99.90;;;;;;5022776;28;20484;-53
2022/08/27 04:44:36;;;;;;;6.22;1.60;;;16.50;99.90;;;;;;5020948;28;20045;-54
2022/08/27 04:47:04;;;;;;;5.43;1.58;;;16.50;99.90;;;;;;5023023;28;20041;-51
2022/08/27 04:49:30;;;;;;;6.05;1.90;;;16.60;99.90;;;;;;5022685;28;20049;-52
2022/08/27 04:51:56;;;;;;;6.07;1.80;;;16.50;99.90;;;;;;4987769;28;20041;-53
2022/08/27 04:54:22;;;;;;;6.18;1.90;;;16.50;99.90;;;;;;5004546;28;20123;-51
2022/08/27 04:56:48;;;;;;;6.00;2.13;;;16.50;99.90;;;;;;5022167;28;20064;-52
2022/08/27 04:59:14;;;;;;;7.13;1.95;;;16.50;99.90;;;;;;5022213;28;20667;-53
2022/08/27 05:01:41;;;;;;;4.40;1.75;;;16.60;99.90;;;;;;5021384;28;20136;-52
2022/08/27 05:04:09;;;;;;;6.38;1.92;;;16.60;99.90;;;;;;5022074;28;20435;-53
2022/08/27 05:06:35;;;;;;;8.32;2.00;;;16.70;99.90;;;;;;5021245;28;20133;-52
2022/08/27 05:09:02;;;;;;;7.00;2.05;;;16.70;99.90;;;;;;5021735;28;20037;-52
2022/08/27 05:11:31;;;;;;;4.68;1.60;;;16.80;99.90;;;;;;5022373;28;20033;-54
2022/08/27 05:14:00;;;;;;;6.22;2.20;;;16.80;99.90;;;;;;5021965;28;20366;-53
2022/08/27 05:16:25;;;;;;;6.55;1.83;;;16.80;99.90;;;;;;5002907;28;20527;-53
2022/08/27 05:18:52;;;;;;;5.97;1.73;;;16.90;99.90;;;;;;5021735;28;20041;-52
2022/08/27 05:21:25;;;;;;;6.03;1.80;;;17.00;99.90;;;;;;5021498;28;20037;-51
2022/08/27 05:23:53;;;;;;;7.32;2.33;;;17.00;99.90;;;;;;5003860;28;20042;-52
2022/08/27 05:26:19;;;;;;;6.80;2.05;;;17.00;99.90;;;;;;5021788;28;20038;-53
2022/08/27 05:28:45;;;;;;;7.68;1.92;;;17.00;99.90;;;;;;5021558;28;20048;-51
2022/08/27 05:31:13;;;;;;;6.07;1.95;;;17.10;99.90;;;;;;5020779;28;20350;-52
2022/08/27 05:33:40;;;;;;;7.90;1.90;;;17.00;99.90;;;;;;5020895;28;20442;-53
2022/08/27 05:36:07;;;;;;;5.97;1.63;;;17.00;99.90;;;;;;5021809;28;20052;-52
2022/08/27 05:38:35;;;;;;;5.95;1.60;;;17.10;99.90;;;;;;5021108;28;20033;-49
2022/08/27 05:41:08;;;;;;;4.50;1.83;;;17.20;99.90;;;;;;5021119;28;20100;-52
2022/08/27 05:43:36;;;;;;;7.20;1.90;;;17.30;99.90;;;;;;5021637;28;20653;-53
2022/08/27 05:46:10;;;;;;;7.68;1.88;;;17.50;99.90;;;;;;5021392;28;20118;-52
2022/08/27 05:48:36;;;;;;;;;;;18.00;99.90;;;;;;5021119;28;20056;-52
2022/08/27 05:51:08;;;;;;;6.70;1.60;;;18.70;99.90;;;;;;5020645;28;19921;-52
2022/08/27 05:53:34;;;;;;;4.93;1.50;;;19.20;99.90;;;;;;5022030;28;20120;-53
2022/08/27 05:56:00;;;;;;;3.78;1.60;;;19.70;99.90;;;;;;5020390;28;20061;-58
2022/08/27 06:01:12;;;;;;;3.83;1.33;;;20.30;99.90;;;;;;5020077;28;20072;-53
2022/08/27 06:03:39;;;;;;;8.43;1.77;;;20.70;99.90;;;;;;5020955;28;20103;-52
2022/08/27 06:06:09;;;;;;;6.28;1.60;;;21.10;99.90;;;;;;5020619;28;20045;-52
2022/08/27 06:08:36;;;;;;;5.30;1.70;;;21.20;99.90;;;;;;5021010;28;20043;-52
2022/08/27 06:11:04;;;;;;;5.40;1.70;;;21.10;99.90;;;;;;5021343;28;20081;-54
2022/08/27 06:13:31;;;;;;;4.80;1.80;;;21.40;99.90;;;;;;5003425;28;20060;-52
2022/08/27 06:16:02;;;;;;;6.88;1.48;;;21.40;99.90;;;;;;5020014;28;20095;-50
2022/08/27 06:18:28;;;;;;;4.38;1.40;;;21.70;99.90;;;;;;5020988;28;20048;-51
2022/08/27 06:20:53;;;;;;;5.45;1.27;;;21.60;99.90;;;;;;5003100;28;20587;-53
2022/08/27 06:23:19;;;;;;;5.82;1.58;;;21.90;99.90;;;;;;5020688;28;20064;-52
2022/08/27 06:25:45;;;;;;;6.72;2.00;;;22.00;99.90;;;;;;5020881;28;20041;-52
2022/08/27 06:28:12;;;;;;;4.97;1.40;;;21.90;99.90;;;;;;5020862;28;20050;-51
2022/08/27 06:30:37;;;;;;;4.55;1.25;;;22.20;99.90;;;;;;5020072;28;20049;-54
2022/08/27 06:33:03;;;;;;;6.55;1.60;;;22.30;99.90;;;;;;5021358;28;20416;-53
2022/08/27 06:35:29;;;;;;;4.28;1.30;;;22.30;99.90;;;;;;5020282;28;20504;-51
2022/08/27 06:37:54;;;;;;;5.13;1.83;;;22.00;99.90;;;;;;5020424;28;20053;-54
2022/08/27 06:40:21;;;;;;;4.43;1.25;;;22.20;99.90;;;;;;5020296;28;20041;-53
2022/08/27 06:42:47;;;;;;;5.28;1.35;;;22.00;99.90;;;;;;5019744;28;20168;-52
2022/08/27 06:45:13;;;;;;;6.15;1.52;;;22.00;99.90;;;;;;5023813;28;20758;-52
2022/08/27 06:47:39;;;;;;;5.43;1.48;;;22.10;99.90;;;;;;5028540;28;20399;-53
2022/08/27 06:50:05;;;;;;;6.10;1.38;;;22.30;99.90;;;;;;5032409;28;20052;-53
2022/08/27 06:52:31;;;;;;;8.02;1.70;;;22.40;99.90;;;;;;5032749;28;20050;-53
2022/08/27 06:54:56;;;;;;;8.27;1.70;;;21.90;99.90;;;;;;5033094;28;20040;-55
2022/08/27 06:57:23;;;;;;;10.93;1.55;;;21.60;99.90;;;;;;5034435;28;20060;-55
2022/08/27 06:59:49;;;;;;;6.45;1.40;;;21.30;99.90;;;;;;5031536;28;20050;-53
2022/08/27 07:02:15;;;;;;;6.97;1.67;;;21.00;99.90;;;;;;5033540;28;20033;-53
2022/08/27 07:04:41;;;;;;;6.70;1.63;;;20.80;99.90;;;;;;5034082;28;20065;-53
2022/08/27 07:07:09;;;;;;;6.70;1.40;;;20.80;99.90;;;;;;5030599;28;20041;-52
2022/08/27 07:09:34;;;;;;;8.80;1.60;;;20.80;99.90;;;;;;5032478;28;20045;-57
2022/08/27 07:12:00;;;;;;;5.75;1.63;;;20.70;99.90;;;;;;5033279;28;20067;-50
2022/08/27 07:14:26;;;;;;;6.00;1.52;;;20.80;99.90;;;;;;5025132;28;20726;-52
2022/08/27 07:16:51;;;;;;;5.07;1.13;;;20.70;99.90;;;;;;5005603;28;20060;-53
2022/08/27 07:19:17;;;;;;;7.13;1.40;;;20.80;99.90;;;;;;5023521;28;20049;-53
2022/08/27 07:21:43;;;;;;;3.80;0.90;;;21.00;99.90;;;;;;5023596;28;20136;-53
2022/08/27 07:24:09;;;;;;;8.15;1.60;;;21.30;99.90;;;;;;5023751;28;20061;-53
2022/08/27 07:26:37;;;;;;;9.30;1.73;;;21.40;99.90;;;;;;5022548;28;20512;-55
2022/08/27 07:29:09;;;;;;;8.02;1.60;;;21.30;99.90;;;;;;5023805;28;20455;-50
2022/08/27 07:31:35;;;;;;;8.50;1.60;;;21.20;99.90;;;;;;5023606;28;20436;-51
2022/08/27 07:34:01;;;;;;;7.07;1.52;;;21.10;99.90;;;;;;5025457;28;20045;-51
2022/08/27 07:36:27;;;;;;;5.22;1.50;;;20.90;99.90;;;;;;5023394;28;20381;-52
2022/08/27 07:38:53;;;;;;;8.15;1.40;;;20.80;99.90;;;;;;5023355;28;20095;-53
2022/08/27 07:41:19;;;;;;;7.65;1.52;;;20.70;99.90;;;;;;5023531;28;20511;-52
2022/08/27 07:46:30;;;;;;;5.43;1.50;;;20.40;99.90;;;;;;5023294;28;20051;-52
2022/08/27 07:48:56;;;;;;;6.97;1.50;;;20.40;99.90;;;;;;5022294;28;20037;-49
2022/08/27 07:51:24;;;;;;;6.05;1.10;;;20.50;99.90;;;;;;5023222;28;20088;-53
2022/08/27 07:53:51;;;;;;;8.63;1.70;;;21.00;99.90;;;;;;5022913;28;20251;-52
2022/08/27 07:56:17;;;;;;;7.30;1.58;;;21.20;99.90;;;;;;5005213;28;20049;-51
2022/08/27 07:58:43;;;;;;;7.78;1.80;;;21.50;99.90;;;;;;5022567;28;20052;-51
2022/08/27 08:01:10;;;;;;;8.48;1.60;;;22.10;99.90;;;;;;5022000;28;20752;-52
2022/08/27 08:03:36;;;;;;;7.72;1.40;;;22.70;99.90;;;;;;5005114;28;20049;-53
2022/08/27 08:06:05;;;;;;;5.40;1.40;;;23.20;99.90;;;;;;5021354;28;20095;-52
2022/08/27 08:08:33;;;;;;;5.40;1.25;;;23.40;99.90;;;;;;5013684;28;20124;-52
2022/08/27 08:10:58;;;;;;;7.30;1.50;;;23.80;99.90;;;;;;5023651;28;20503;-52
2022/08/27 08:13:24;;;;;;;8.95;1.60;;;23.90;99.90;;;;;;5022958;28;20038;-53
2022/08/27 08:15:50;;;;;;;7.63;1.63;;;23.80;99.90;;;;;;5022161;28;20045;-53
2022/08/27 08:18:16;;;;;;;7.10;1.23;;;23.40;99.90;;;;;;5023455;28;20050;-51
2022/08/27 08:20:41;;;;;;;6.00;1.25;;;23.20;99.90;;;;;;5004841;28;20583;-51
2022/08/27 08:23:07;;;;;;;9.60;1.65;;;23.30;99.90;;;;;;5022658;28;20428;-52
2022/08/27 08:25:33;;;;;;;7.82;1.20;;;23.50;99.90;;;;;;5005559;28;20049;-52
2022/08/27 08:27:59;;;;;;;7.55;1.48;;;24.00;99.90;;;;;;5022883;28;20073;-51
2022/08/27 08:30:25;;;;;;;9.38;1.60;;;24.00;99.90;;;;;;5022542;28;20523;-52
2022/08/27 08:32:52;;;;;;;8.30;1.25;;;23.50;99.90;;;;;;5022209;28;20128;-52
2022/08/27 08:35:17;;;;;;;7.68;1.40;;;23.10;99.90;;;;;;5023155;28;20037;-53
2022/08/27 08:37:44;;;;;;;7.10;2.03;;;22.60;99.90;;;;;;5022573;28;20476;-52
2022/08/27 08:40:24;;;;;;;5.43;1.23;;;22.30;99.90;;;;;;5022075;28;20405;-53
2022/08/27 08:42:52;;;;;;;7.97;1.35;;;22.20;99.90;;;;;;5022284;28;20094;-53
2022/08/27 08:45:25;;;;;;;7.75;1.58;;;22.30;99.90;;;;;;5003834;28;20286;-52
2022/08/27 08:48:02;;;;;;;10.55;1.38;;;22.60;99.90;;;;;;5022226;28;20403;-53
2022/08/27 08:50:42;;;;;;;10.00;1.73;;;22.50;99.90;;;;;;5004911;28;20111;-53
2022/08/27 08:53:36;;;;;;;8.02;1.33;;;22.80;99.90;;;;;;5025351;28;20069;-51
2022/08/27 08:56:07;;;;;;;6.57;1.30;;;23.10;99.90;;;;;;5001378;28;20049;-53
2022/08/27 08:59:01;;;;;;;7.60;1.55;;;23.30;99.90;;;;;;5003176;28;20489;-52
2022/08/27 09:01:27;;;;;;;5.13;1.10;;;23.20;99.90;;;;;;5001990;28;20378;-56
2022/08/27 09:04:05;;;;;;;5.28;1.27;;;23.30;99.90;;;;;;5002456;28;20049;-56
2022/08/27 09:07:09;;;;;;;4.40;1.15;;;23.80;99.90;;;;;;5014648;28;20053;-56
2022/08/27 09:09:45;;;;;;;4.63;1.10;;;23.80;99.90;;;;;;4995468;28;20449;-57
2022/08/27 09:12:18;;;;;;;7.95;1.80;;;24.50;99.90;;;;;;5001526;28;20117;-56
2022/08/27 09:14:53;;;;;;;9.77;1.50;;;24.30;99.90;;;;;;5000709;28;20121;-58
2022/08/27 09:17:18;;;;;;;6.10;1.20;;;23.90;99.90;;;;;;5002166;28;20052;-56
2022/08/27 09:19:44;;;;;;;8.35;1.50;;;23.40;99.90;;;;;;5001991;28;20038;-56
2022/08/27 09:22:16;;;;;;;9.95;1.70;;;22.90;99.90;;;;;;5002547;28;20042;-57
2022/08/27 09:24:45;;;;;;;6.75;1.40;;;22.80;99.90;;;;;;5002258;28;20050;-57
2022/08/27 09:27:13;;;;;;;5.10;1.25;;;22.60;99.90;;;;;;5002055;28;20556;-57
2022/08/27 09:29:55;;;;;;;7.85;1.25;;;22.50;99.90;;;;;;5001153;28;20156;-57
2022/08/27 09:32:30;;;;;;;6.88;1.30;;;22.50;99.90;;;;;;5001343;28;20045;-57
2022/08/27 09:34:59;;;;;;;6.55;1.23;;;22.50;99.90;;;;;;5001795;28;20087;-57
2022/08/27 09:37:28;;;;;;;6.75;1.30;;;22.50;99.90;;;;;;5001761;28;20088;-57
2022/08/27 09:40:10;;;;;;;5.72;1.20;;;22.50;99.90;;;;;;5001169;28;20444;-57
2022/08/27 09:42:41;;;;;;;7.13;1.40;;;22.70;99.90;;;;;;5002040;28;20121;-57
2022/08/27 09:45:13;;;;;;;6.70;1.25;;;23.10;99.90;;;;;;5000766;28;20057;-57
2022/08/27 09:47:49;;;;;;;6.57;1.20;;;23.30;99.90;;;;;;5001861;28;20050;-57
2022/08/27 09:50:19;;;;;;;9.88;1.80;;;23.50;99.90;;;;;;5001948;28;20467;-56
2022/08/27 09:52:54;;;;;;;9.95;1.95;;;23.40;99.90;;;;;;5001553;28;20095;-57
2022/08/27 09:55:53;;;;;;;8.38;1.42;;;23.10;99.90;;;;;;5001245;28;20103;-57
2022/08/27 09:58:20;;;;;;;5.60;1.83;;;22.70;99.90;;;;;;5001689;28;20526;-56
2022/08/27 10:00:47;;;;;;;8.50;1.88;;;22.60;99.90;;;;;;5000864;28;20092;-57
2022/08/27 10:03:13;;;;;;;7.50;1.83;;;22.50;99.90;;;;;;5000502;28;20124;-58
2022/08/27 10:05:50;;;;;;;7.75;1.25;;;22.10;99.90;;;;;;5005979;28;20133;-57
2022/08/27 10:08:44;;;;;;;8.77;1.55;;;22.00;99.90;;;;;;5020820;28;20049;-57
2022/08/27 10:11:18;;;;;;;8.02;1.65;;;21.90;99.90;;;;;;5021511;28;20049;-57
2022/08/27 10:14:00;;;;;;;6.47;1.40;;;22.00;99.90;;;;;;5019647;28;20049;-57
2022/08/27 10:16:53;;;;;;;7.28;1.30;;;21.90;99.90;;;;;;5020836;28;20779;-62
2022/08/27 10:19:22;;;;;;;9.68;1.88;;;22.20;99.90;;;;;;5003373;28;20073;-62
2022/08/27 10:22:13;;;;;;;5.47;1.30;;;22.10;99.90;;;;;;5020952;28;20046;-63
2022/08/27 10:24:47;;;;;;;6.13;1.35;;;22.30;99.90;;;;;;5020140;28;20054;-62
2022/08/27 10:27:37;;;;;;;7.80;1.42;;;22.30;99.90;;;;;;5020707;28;20520;-63
2022/08/27 10:30:37;;;;;;;6.50;1.17;;;22.40;99.90;;;;;;5022997;28;20119;-58
2022/08/27 10:33:14;;;;;;;6.65;1.40;;;22.00;99.90;;;;;;4953675;28;20199;-59
2022/08/27 10:35:48;;;;;;;8.02;1.40;;;22.00;99.90;;;;;;5027685;28;20041;-58
2022/08/27 10:38:36;;;;;;;5.75;1.00;;;22.10;99.90;;;;;;5031487;28;20030;-59
2022/08/27 10:41:11;;;;;;;4.45;1.38;;;22.20;99.90;;;;;;5023588;28;20048;-58
2022/08/27 10:43:56;;;;;;;5.50;1.55;;;22.20;99.90;;;;;;5019300;28;20045;-59
2022/08/27 10:46:37;;;;;;;6.57;1.30;;;22.20;99.90;;;;;;5003625;28;20057;-59
2022/08/27 10:49:18;;;;;;;11.45;1.67;;;22.30;99.90;;;;;;5020741;28;20049;-59
2022/08/27 10:51:46;;;;;;;8.52;1.38;;;22.40;99.90;;;;;;5020401;28;20060;-58
2022/08/27 10:54:39;;;;;;;6.13;1.30;;;22.40;99.90;;;;;;5020051;28;20108;-59
2022/08/27 10:57:31;;;;;;;10.15;1.45;;;22.60;99.90;;;;;;5015139;28;20052;-59
2022/08/27 11:00:00;;;;;;;6.28;1.20;;;22.90;99.90;;;;;;4999921;28;20056;-58
2022/08/27 11:02:39;;;;;;;5.15;1.20;;;23.60;99.90;;;;;;5001189;28;20144;-58
2022/08/27 11:05:30;;;;;;;6.55;1.20;;;23.40;99.90;;;;;;5000607;28;20080;-59
2022/08/27 11:08:07;;;;;;;5.40;1.40;;;24.20;99.90;;;;;;5016125;28;20053;-58
2022/08/27 11:10:38;;;;;;;7.15;1.13;;;24.90;99.90;;;;;;5020544;28;20045;-58
2022/08/27 11:13:18;;;;;;;6.10;1.42;;;25.30;99.90;;;;;;5020640;28;20034;-58
2022/08/27 11:15:48;;;;;;;7.95;1.33;;;25.70;99.90;;;;;;5019477;28;20045;-58
2022/08/27 11:18:27;;;;;;;8.30;1.30;;;25.40;99.90;;;;;;5020628;28;20112;-58
2022/08/27 11:21:18;;;;;;;9.98;1.65;;;25.10;99.90;;;;;;5020798;28;20061;-58
2022/08/27 11:23:53;;;;;;;12.43;2.30;;;24.80;99.90;;;;;;5019482;28;20128;-59
2022/08/27 11:26:18;;;;;;;5.82;1.40;;;24.70;99.90;;;;;;5001298;28;20084;-60
2022/08/27 11:28:59;;;;;;;9.68;1.60;;;24.40;99.90;;;;;;5018822;28;20091;-58
2022/08/27 11:31:40;;;;;;;7.30;1.75;;;24.20;99.90;;;;;;5020282;28;20049;-58
2022/08/27 11:34:24;;;;;;;4.72;1.02;;;24.20;99.90;;;;;;5020968;28;20053;-58
2022/08/27 11:36:58;;;;;;;7.50;1.20;;;24.70;99.90;;;;;;5021564;28;20065;-58
2022/08/27 11:39:56;;;;;;;6.60;1.65;;;25.20;99.90;;;;;;5023825;28;20065;-58
2022/08/27 11:42:22;;;;;;;4.78;0.98;;;25.70;99.90;;;;;;5023416;28;20057;-58
2022/08/27 11:44:53;;;;;;;4.97;1.50;;;25.50;99.90;;;;;;5022737;28;20045;-58
2022/08/27 11:47:22;;;;;;;5.60;1.17;;;25.40;99.90;;;;;;5023804;28;20041;-58
2022/08/27 11:49:56;;;;;;;7.72;1.20;;;25.00;99.90;;;;;;5022689;28;20053;-59
2022/08/27 11:52:33;;;;;;;8.63;1.58;;;25.00;99.90;;;;;;5023895;28;20068;-58
2022/08/27 11:55:20;;;;;;;5.18;1.30;;;25.60;99.90;;;;;;5022426;28;20073;-58
2022/08/27 11:57:49;;;;;;;7.93;1.33;;;25.40;99.90;;;;;;5023255;28;20189;-59
2022/08/27 12:00:26;;;;;;;4.60;1.20;;;25.20;99.90;;;;;;5023028;28;20099;-58
2022/08/27 12:03:08;;;;;;;5.45;1.30;;;25.30;99.90;;;;;;5019789;28;20064;-59
2022/08/27 12:05:44;;;;;;;6.95;1.20;;;25.40;99.90;;;;;;5021668;28;20515;-58
2022/08/27 12:08:31;;;;;;;4.85;1.10;;;25.80;99.90;;;;;;5022836;28;20041;-58
2022/08/27 12:11:21;;;;;;;4.70;1.15;;;25.40;99.90;;;;;;5022619;28;20060;-58
2022/08/27 12:14:12;;;;;;;4.97;1.20;;;25.30;99.90;;;;;;5021593;28;20049;-59
2022/08/27 12:16:41;;;;;;;5.65;1.50;;;25.40;99.90;;;;;;5022073;28;20049;-57
2022/08/27 12:19:40;;;;;;;5.93;1.50;;;25.30;99.90;;;;;;5022883;28;20591;-59
2022/08/27 12:22:26;;;;;;;5.05;1.20;;;24.90;99.90;;;;;;5008529;28;20053;-59
2022/08/27 12:24:57;;;;;;;5.25;1.13;;;25.10;99.90;;;;;;5003659;28;20131;-58
2022/08/27 12:27:23;;;;;;;6.57;1.00;;;24.80;99.90;;;;;;5002864;28;20050;-59
2022/08/27 12:29:57;;;;;;;6.13;0.82;;;24.80;99.90;;;;;;5002265;28;20052;-59
2022/08/27 12:32:45;;;;;;;4.47;1.10;;;24.90;99.90;;;;;;5003275;28;20191;-57
2022/08/27 12:35:16;;;;;;;4.55;1.10;;;24.80;99.90;;;;;;5003002;28;20042;-58
2022/08/27 12:37:54;;;;;;;3.55;0.93;;;24.30;99.90;;;;;;5002931;28;20045;-58
2022/08/27 12:40:23;;;;;;;5.07;1.10;;;24.10;99.90;;;;;;5003042;28;20589;-57
2022/08/27 12:42:50;;;;;;;7.22;1.13;;;24.10;99.90;;;;;;5003118;28;20053;-57
2022/08/27 12:45:24;;;;;;;6.63;1.10;;;24.40;99.90;;;;;;5002095;28;20038;-58
2022/08/27 12:47:52;;;;;;;3.75;0.80;;;24.50;99.90;;;;;;5002345;28;20049;-57
2022/08/27 12:50:25;;;;;;;4.00;1.00;;;24.70;99.90;;;;;;5003076;28;20483;-57
2022/08/27 12:53:05;;;;;;;7.07;1.20;;;25.10;99.90;;;;;;5001991;28;20076;-57
2022/08/27 12:55:58;;;;;;;3.85;0.80;;;25.10;99.90;;;;;;5002821;28;20488;-57
2022/08/27 12:58:42;;;;;;;4.75;0.95;;;24.80;99.90;;;;;;5002509;28;20082;-57
2022/08/27 13:01:28;;;;;;;;;;;24.80;99.90;;;;;;5003006;28;20042;-57
2022/08/27 13:03:55;;;;;;;7.95;1.10;;;24.70;99.90;;;;;;5008354;28;20004;-57
2022/08/27 13:06:32;;;;;;;5.03;0.88;;;25.00;99.90;;;;;;5018222;28;20049;-57
2022/08/27 13:09:00;;;;;;;5.55;1.25;;;25.00;99.90;;;;;;5016856;28;20033;-57
2022/08/27 13:11:29;;;;;;;5.55;0.75;;;24.90;99.90;;;;;;5017652;28;20412;-59